Main page
METAR-TAF:

METAR-TAF

Airports :

Campbeltown Airport

Campbeltown, Scotland

latitude: 55-26-14N, longitude: 005-41-11W, elevation: 13 m

Current weather observation

The report was made 4 hours and 21 minutes ago, at 16:20 UTC
Wind 13 kt from the West
Temperature 16°C
Humidity 82%
Pressure 1000 hPa
Visibility 10 km or more
Few clouds at a height of 1200 ft
Scattered clouds at a height of 4000 ft

METAR: EGEC 281620Z 26013KT 9999 FEW012 SCT040 16/13 Q1000

Time: 21:41 (20:41 UTC)

Forecast

The report was made 6 hours and 41 minutes ago, at 14:00 UTC
Forecast valid from 28 at 15 UTC to 28 at 17 UTC
Wind 9 kt from the West/Northwest
Visibility 10 km or more
Few clouds at a height of 700 ft
Scattered clouds at a height of 2500 ft
Probability 30% :
Temporary
from 28 at 15 UTC to 28 at 17 UTC
Visibility: 6000 m
Broken clouds at a height of 1200 ft
rain showers

TAF: EGEC 281400Z 2815/2817 29009KT 9999 FEW007 SCT025 PROB30 TEMPO 2815/2817 6000 SHRA BKN012

Weather observations and forecasts of more than 4000 airports (METAR and TAF reports).

The available stations are represented by yellow and red dots on the map.

Hover mouse over dot to see the name of the station.

Then click to see weather observations and forecasts.

To change the map : click on the green buttons with a black cross to zoom in, on the green button with a dash to zoom out, or on the green arrows for adjacent maps.


METAR-TAF: